createdAt,value
2023-07-21T00:00:22.669Z,1.40
2023-07-21T00:01:17.464Z,1.23
2023-07-21T00:02:08.334Z,1.30
2023-07-21T00:02:59.605Z,1.30
2023-07-21T00:03:50.605Z,1.50
2023-07-21T00:04:41.318Z,1.27
2023-07-21T00:05:32.461Z,1.50
2023-07-21T00:06:25.972Z,1.40
2023-07-21T00:07:16.857Z,1.30
2023-07-21T00:08:09.863Z,1.40
2023-07-21T00:09:00.328Z,1.25
2023-07-21T00:09:51.142Z,1.20
2023-07-21T00:10:43.777Z,1.40
2023-07-21T00:11:34.408Z,1.23
2023-07-21T00:12:25.391Z,1.33
2023-07-21T00:13:16.236Z,1.10
2023-07-21T00:14:07.167Z,1.08
2023-07-21T00:14:57.988Z,1.13
2023-07-21T00:15:50.334Z,0.98
2023-07-21T00:16:41.169Z,1.10
2023-07-21T00:17:33.429Z,1.35
2023-07-21T00:18:25.001Z,1.23
2023-07-21T00:19:15.816Z,1.35
2023-07-21T00:20:21.254Z,1.60
2023-07-21T00:21:13.227Z,1.30
2023-07-21T00:22:03.992Z,1.20
2023-07-21T00:22:55.032Z,1.30
2023-07-21T00:23:47.730Z,1.10
2023-07-21T00:24:38.322Z,1.10
2023-07-21T00:25:29.072Z,1.40
2023-07-21T00:26:20.317Z,1.10
2023-07-21T00:27:12.586Z,1.45
2023-07-21T00:28:03.470Z,1.05
2023-07-21T00:28:58.161Z,1.40
2023-07-21T00:29:51.118Z,1.23
2023-07-21T00:30:42.365Z,1.60
2023-07-21T00:31:33.543Z,1.00
2023-07-21T00:32:24.525Z,1.20
2023-07-21T00:33:16.308Z,1.02
2023-07-21T00:35:02.876Z,1.40
2023-07-21T00:35:53.658Z,1.23
2023-07-21T00:36:47.230Z,1.30
2023-07-21T00:37:39.297Z,1.20
2023-07-21T00:38:30.356Z,1.10
2023-07-21T00:39:21.165Z,1.10
2023-07-21T00:40:17.177Z,1.40
2023-07-21T00:41:08.537Z,1.40
2023-07-21T00:42:50.604Z,1.23
2023-07-21T00:43:41.423Z,1.23
2023-07-21T00:44:32.164Z,1.20
2023-07-21T00:45:23.243Z,1.30
2023-07-21T00:46:14.410Z,1.30
2023-07-21T00:47:06.082Z,1.20
2023-07-21T00:47:57.613Z,1.30
2023-07-21T00:48:48.886Z,1.30
2023-07-21T00:49:43.077Z,1.27
2023-07-21T00:50:33.751Z,1.23
2023-07-21T00:51:24.418Z,1.38
2023-07-21T00:52:18.721Z,1.30
2023-07-21T00:53:14.708Z,1.42
2023-07-21T00:54:06.418Z,1.50
2023-07-21T00:54:57.511Z,2.20
2023-07-21T00:55:49.924Z,1.50
2023-07-21T00:56:43.574Z,1.30
2023-07-21T00:57:36.668Z,1.42
2023-07-21T00:58:27.639Z,1.30
2023-07-21T00:59:18.444Z,1.20
2023-07-21T01:00:13.588Z,1.23
2023-07-21T01:01:05.611Z,1.30
2023-07-21T01:01:57.619Z,1.38
2023-07-21T01:02:50.968Z,1.35
2023-07-21T01:03:42.588Z,1.40
2023-07-21T01:04:35.142Z,1.20
2023-07-21T01:05:26.680Z,1.10
2023-07-21T01:06:17.915Z,1.20
2023-07-21T01:07:10.649Z,1.25
2023-07-21T01:08:08.983Z,1.35
2023-07-21T01:09:03.338Z,1.70
2023-07-21T01:09:54.249Z,1.48
2023-07-21T01:10:48.957Z,1.30
2023-07-21T01:11:40.415Z,1.30
2023-07-21T01:12:31.869Z,1.67
2023-07-21T01:13:23.291Z,1.23
2023-07-21T01:14:14.131Z,1.02
2023-07-21T01:15:05.746Z,1.45
2023-07-21T01:15:57.825Z,1.05
2023-07-21T01:16:50.034Z,1.50
2023-07-21T01:17:42.054Z,1.50
2023-07-21T01:18:34.477Z,1.20
2023-07-21T01:19:26.412Z,1.27
2023-07-21T01:20:23.593Z,1.67
2023-07-21T01:21:21.657Z,1.35
2023-07-21T01:22:35.341Z,1.52
2023-07-21T01:23:38.588Z,1.17
2023-07-21T01:25:10.595Z,1.50
2023-07-21T01:26:01.999Z,1.10
2023-07-21T01:26:55.896Z,1.27
2023-07-21T01:27:49.643Z,1.33
2023-07-21T01:28:44.650Z,1.50
2023-07-21T01:29:36.985Z,1.60
2023-07-21T01:30:30.335Z,1.25
2023-07-21T01:31:22.576Z,1.35
2023-07-21T01:32:16.511Z,1.50
2023-07-21T01:33:09.142Z,1.40
2023-07-21T01:34:00.549Z,1.33
2023-07-21T01:34:53.051Z,1.40
2023-07-21T01:35:45.129Z,1.30
2023-07-21T01:36:37.812Z,1.45
2023-07-21T01:37:29.274Z,1.65
2023-07-21T01:38:21.875Z,1.50
2023-07-21T01:39:13.753Z,1.50
2023-07-21T01:40:10.648Z,1.42
2023-07-21T01:41:03.139Z,1.75
2023-07-21T01:41:56.679Z,1.40
2023-07-21T01:42:51.085Z,1.80
2023-07-21T01:43:42.195Z,1.50
2023-07-21T01:44:34.007Z,1.45
2023-07-21T01:45:25.225Z,1.38
2023-07-21T01:46:17.037Z,1.42
2023-07-21T01:47:08.210Z,1.52
2023-07-21T01:47:59.460Z,1.52
2023-07-21T01:48:50.187Z,1.65
2023-07-21T01:49:41.118Z,1.63
2023-07-21T01:50:32.954Z,1.52
2023-07-21T01:52:18.163Z,1.58
2023-07-21T01:53:15.026Z,1.70
2023-07-21T01:54:12.922Z,1.55
2023-07-21T01:55:34.190Z,1.48
2023-07-21T01:56:33.135Z,1.50
2023-07-21T01:57:31.469Z,1.67
2023-07-21T01:58:22.963Z,1.38
2023-07-21T01:59:15.747Z,1.42
2023-07-21T02:00:14.362Z,1.60
2023-07-21T02:01:12.757Z,1.58
2023-07-21T02:02:04.129Z,1.90
2023-07-21T02:02:56.659Z,1.50
2023-07-21T02:03:48.871Z,1.58
2023-07-21T02:04:39.968Z,1.45
2023-07-21T02:05:30.767Z,1.73
2023-07-21T02:06:21.374Z,1.55
2023-07-21T02:07:12.612Z,1.70
2023-07-21T02:08:03.659Z,1.60
2023-07-21T02:08:54.233Z,1.73
2023-07-21T02:09:45.062Z,1.40
2023-07-21T02:10:37.324Z,1.27
2023-07-21T02:11:37.425Z,1.60
2023-07-21T02:12:51.153Z,1.50
2023-07-21T02:13:42.112Z,1.85
2023-07-21T02:14:32.810Z,1.50
2023-07-21T02:15:23.820Z,2.10
2023-07-21T02:16:15.475Z,1.50
2023-07-21T02:17:07.095Z,1.30
2023-07-21T02:17:59.590Z,1.73
2023-07-21T02:18:50.427Z,1.65
2023-07-21T02:19:41.271Z,1.83
2023-07-21T02:20:33.096Z,1.85
2023-07-21T02:21:23.842Z,1.90
2023-07-21T02:22:14.996Z,1.60
2023-07-21T02:23:06.314Z,1.55
2023-07-21T02:23:57.054Z,1.70
2023-07-21T02:24:47.919Z,1.70
2023-07-21T02:25:38.871Z,1.85
2023-07-21T02:26:30.330Z,1.73
2023-07-21T02:27:23.392Z,1.70
2023-07-21T02:28:14.079Z,1.55
2023-07-21T02:29:05.074Z,1.60
2023-07-21T02:29:56.978Z,2.42
2023-07-21T02:30:58.216Z,1.80
2023-07-21T02:31:50.721Z,1.60
2023-07-21T02:32:41.655Z,1.80
2023-07-21T02:33:32.934Z,1.70
2023-07-21T02:34:23.702Z,1.67
2023-07-21T02:35:14.765Z,1.75
2023-07-21T02:36:07.964Z,1.50
2023-07-21T02:37:00.250Z,1.67
2023-07-21T02:37:51.069Z,1.60
2023-07-21T02:38:43.964Z,1.50
2023-07-21T02:39:35.043Z,1.90
2023-07-21T02:40:26.055Z,1.90
2023-07-21T02:41:17.066Z,1.73
2023-07-21T02:42:08.385Z,1.65
2023-07-21T02:42:59.720Z,1.70
2023-07-21T02:43:50.472Z,1.90
2023-07-21T02:44:42.099Z,1.85
2023-07-21T02:46:24.488Z,1.67
2023-07-21T02:47:19.865Z,1.70
2023-07-21T02:48:11.221Z,1.35
2023-07-21T02:49:02.453Z,1.45
2023-07-21T02:49:53.433Z,1.70
2023-07-21T02:50:56.736Z,1.60
2023-07-21T02:51:48.105Z,1.70
2023-07-21T02:52:40.224Z,1.58
2023-07-21T02:54:24.998Z,1.38
2023-07-21T02:55:18.469Z,1.48
2023-07-21T02:56:10.310Z,1.42
2023-07-21T02:57:36.521Z,1.50
2023-07-21T02:58:28.841Z,1.45
2023-07-21T02:59:22.195Z,1.70
2023-07-21T03:00:14.047Z,1.75
2023-07-21T03:01:16.612Z,1.60
2023-07-21T03:02:07.509Z,1.60
2023-07-21T03:03:10.476Z,1.95
2023-07-21T03:04:04.093Z,1.55
2023-07-21T03:05:00.956Z,1.60
2023-07-21T03:05:53.128Z,1.50
2023-07-21T03:06:47.621Z,1.48
2023-07-21T03:07:40.370Z,1.58
2023-07-21T03:08:31.598Z,1.52
2023-07-21T03:09:30.553Z,1.35
2023-07-21T03:10:21.636Z,1.60
2023-07-21T03:11:14.536Z,1.38
2023-07-21T03:12:31.772Z,1.60
2023-07-21T03:13:37.932Z,1.63
2023-07-21T03:14:28.777Z,1.67
2023-07-21T03:15:19.561Z,1.95
2023-07-21T03:16:19.957Z,1.50
2023-07-21T03:17:17.001Z,1.70
2023-07-21T03:18:08.084Z,1.95
2023-07-21T03:19:13.171Z,1.70
2023-07-21T03:20:13.225Z,1.58
2023-07-21T03:21:04.417Z,1.77
2023-07-21T03:21:55.742Z,1.80
2023-07-21T03:22:47.063Z,1.67
2023-07-21T03:23:38.667Z,1.52
2023-07-21T03:24:29.753Z,1.85
2023-07-21T03:25:21.173Z,1.60
2023-07-21T03:26:12.393Z,1.90
2023-07-21T03:27:07.354Z,1.70
2023-07-21T03:28:01.194Z,1.60
2023-07-21T03:28:53.810Z,2.03
2023-07-21T03:29:52.476Z,1.70
2023-07-21T03:30:44.689Z,1.50
2023-07-21T03:31:43.569Z,1.55
2023-07-21T03:32:38.254Z,1.60
2023-07-21T03:33:29.699Z,1.80
2023-07-21T03:34:32.395Z,1.90
2023-07-21T03:35:23.266Z,1.70
2023-07-21T03:36:17.675Z,1.88
2023-07-21T03:37:09.696Z,1.65
2023-07-21T03:38:03.224Z,1.98
2023-07-21T03:38:54.302Z,1.80
2023-07-21T03:39:46.062Z,2.00
2023-07-21T03:40:37.528Z,1.98
2023-07-21T03:41:29.942Z,1.40
2023-07-21T03:42:20.842Z,1.70
2023-07-21T03:43:11.364Z,1.92
2023-07-21T03:44:02.221Z,1.90
2023-07-21T03:44:53.183Z,1.70
2023-07-21T03:45:43.636Z,1.90
2023-07-21T03:46:34.433Z,1.73
2023-07-21T03:47:36.064Z,1.63
2023-07-21T03:48:29.357Z,1.75
2023-07-21T03:49:21.186Z,2.03
2023-07-21T03:50:18.295Z,1.70
2023-07-21T03:51:09.081Z,1.80
2023-07-21T03:52:06.800Z,1.52
2023-07-21T03:52:58.650Z,1.83
2023-07-21T03:53:49.877Z,1.45
2023-07-21T03:54:43.794Z,1.52
2023-07-21T03:55:34.921Z,1.70
2023-07-21T03:56:28.494Z,1.58
2023-07-21T03:57:21.048Z,1.90
2023-07-21T03:58:11.659Z,1.70
2023-07-21T03:59:02.679Z,1.77
2023-07-21T03:59:54.137Z,1.50
2023-07-21T04:00:45.251Z,1.85
2023-07-21T04:01:35.779Z,1.50
2023-07-21T04:02:27.020Z,1.83
2023-07-21T04:03:19.793Z,1.42
2023-07-21T04:04:10.860Z,1.42
2023-07-21T04:05:01.698Z,2.05
2023-07-21T04:05:53.334Z,1.85
2023-07-21T04:06:45.186Z,1.90
2023-07-21T04:07:35.973Z,1.60
2023-07-21T04:08:26.517Z,1.70
2023-07-21T04:09:17.663Z,1.63
2023-07-21T04:10:09.012Z,1.67
2023-07-21T04:10:59.608Z,1.60
2023-07-21T04:11:50.804Z,1.70
2023-07-21T04:12:41.437Z,1.65
2023-07-21T04:13:32.201Z,1.48
2023-07-21T04:14:23.048Z,1.52
2023-07-21T04:15:15.723Z,2.10
2023-07-21T04:16:08.262Z,1.58
2023-07-21T04:16:59.078Z,1.45
2023-07-21T04:17:49.829Z,1.60
2023-07-21T04:18:40.775Z,1.40
2023-07-21T04:20:25.876Z,1.50
2023-07-21T04:21:16.581Z,1.67
2023-07-21T04:22:08.504Z,1.60
2023-07-21T04:23:01.060Z,2.15
2023-07-21T04:23:52.807Z,1.80
2023-07-21T04:24:44.180Z,1.80
2023-07-21T04:25:35.750Z,1.90
2023-07-21T04:26:27.685Z,1.90
2023-07-21T04:27:18.467Z,2.03
2023-07-21T04:28:09.250Z,1.70
2023-07-21T04:29:03.008Z,1.70
2023-07-21T04:29:56.291Z,2.05
2023-07-21T04:30:48.497Z,1.92
2023-07-21T04:31:40.308Z,1.50
2023-07-21T04:32:39.619Z,1.40
2023-07-21T04:33:33.093Z,1.67
2023-07-21T04:34:25.522Z,2.00
2023-07-21T04:35:17.641Z,2.47
2023-07-21T04:36:10.050Z,1.90
2023-07-21T04:37:01.326Z,1.80
2023-07-21T04:37:58.379Z,2.05
2023-07-21T04:38:53.132Z,1.85
2023-07-21T04:39:45.110Z,1.75
2023-07-21T04:40:35.947Z,1.92
2023-07-21T04:41:28.313Z,1.83
2023-07-21T04:42:19.552Z,1.70
2023-07-21T04:43:10.491Z,2.03
2023-07-21T04:44:01.534Z,1.63
2023-07-21T04:44:52.444Z,2.35
2023-07-21T04:45:44.164Z,1.80
2023-07-21T04:46:42.865Z,2.42
2023-07-21T04:47:33.674Z,1.80
2023-07-21T04:48:28.544Z,1.75
2023-07-21T04:49:19.786Z,1.80
2023-07-21T04:50:12.290Z,1.67
2023-07-21T04:51:05.374Z,1.85
2023-07-21T04:51:59.532Z,1.98
2023-07-21T04:52:50.356Z,2.03
2023-07-21T04:53:43.461Z,1.95
2023-07-21T04:54:35.530Z,2.13
2023-07-21T04:56:21.879Z,1.70
2023-07-21T04:57:18.976Z,1.95
2023-07-21T04:59:00.566Z,2.10
2023-07-21T04:59:51.401Z,1.98
2023-07-21T05:00:42.291Z,2.15
2023-07-21T05:01:35.296Z,2.40
2023-07-21T05:02:29.284Z,2.10
2023-07-21T05:03:21.655Z,1.95
2023-07-21T05:04:12.912Z,2.33
2023-07-21T05:05:05.625Z,2.22
2023-07-21T05:06:00.389Z,2.17
2023-07-21T05:06:51.692Z,2.10
2023-07-21T05:07:42.287Z,2.05
2023-07-21T05:08:33.149Z,2.33
2023-07-21T05:09:26.099Z,2.22
2023-07-21T05:10:18.010Z,2.10
2023-07-21T05:11:10.984Z,2.45
2023-07-21T05:12:02.956Z,1.85
2023-07-21T05:13:07.356Z,2.50
2023-07-21T05:14:19.704Z,2.47
2023-07-21T05:15:25.893Z,2.05
2023-07-21T05:16:25.292Z,2.53
2023-07-21T05:17:39.626Z,2.00
2023-07-21T05:18:51.485Z,2.03
2023-07-21T05:20:09.063Z,2.13
2023-07-21T05:21:23.240Z,2.72
2023-07-21T05:22:21.149Z,2.30
2023-07-21T05:23:27.401Z,2.42
2023-07-21T05:24:34.383Z,2.25
2023-07-21T05:25:28.008Z,2.40
2023-07-21T05:26:19.175Z,2.35
2023-07-21T05:27:10.221Z,2.40
2023-07-21T05:28:16.244Z,1.90
2023-07-21T05:29:10.251Z,2.55
2023-07-21T05:30:07.408Z,1.95
2023-07-21T05:31:02.091Z,2.45
2023-07-21T05:32:06.779Z,2.30
2023-07-21T05:32:58.661Z,2.38
2023-07-21T05:33:51.653Z,2.40
2023-07-21T05:34:43.624Z,2.30
2023-07-21T05:35:34.808Z,2.13
2023-07-21T05:36:35.960Z,2.30
2023-07-21T05:37:26.652Z,2.20
2023-07-21T05:38:17.995Z,2.30
2023-07-21T05:39:08.689Z,2.55
2023-07-21T05:39:59.773Z,2.30
2023-07-21T05:41:00.561Z,2.70
2023-07-21T05:41:58.872Z,2.47
2023-07-21T05:42:52.886Z,2.20
2023-07-21T05:43:44.302Z,2.10
2023-07-21T05:45:26.974Z,2.40
2023-07-21T05:46:18.747Z,2.65
2023-07-21T05:47:20.478Z,2.38
2023-07-21T05:48:16.152Z,2.35
2023-07-21T05:49:11.097Z,2.33
2023-07-21T05:50:04.037Z,2.33
2023-07-21T05:50:58.955Z,2.60
2023-07-21T05:51:50.278Z,2.50
2023-07-21T05:52:56.243Z,2.25
2023-07-21T05:53:50.631Z,2.80
2023-07-21T05:54:45.342Z,2.10
2023-07-21T05:55:36.780Z,2.65
2023-07-21T05:56:27.834Z,2.60
2023-07-21T05:57:30.675Z,2.38
2023-07-21T05:58:24.013Z,2.55
2023-07-21T05:59:15.030Z,2.17
2023-07-21T06:00:06.706Z,2.60
2023-07-21T06:01:04.788Z,2.25
2023-07-21T06:01:59.666Z,2.47
2023-07-21T06:02:53.350Z,2.20
2023-07-21T06:03:44.303Z,2.10
2023-07-21T06:04:34.957Z,2.25
2023-07-21T06:05:41.001Z,2.53
2023-07-21T06:06:32.306Z,2.33
2023-07-21T06:08:01.110Z,3.13
2023-07-21T06:09:10.823Z,1.92
2023-07-21T06:10:14.624Z,2.28
2023-07-21T06:11:21.040Z,2.30
2023-07-21T06:13:36.164Z,2.35
2023-07-21T06:14:50.283Z,2.20
2023-07-21T06:15:52.731Z,2.03
2023-07-21T06:16:53.159Z,2.17
2023-07-21T06:17:43.979Z,1.80
2023-07-21T06:18:36.758Z,1.83
2023-07-21T06:19:28.092Z,2.28
2023-07-21T06:20:23.674Z,2.00
2023-07-21T06:21:14.456Z,2.17
2023-07-21T06:22:08.736Z,2.30
2023-07-21T06:23:54.755Z,2.10
2023-07-21T06:24:46.882Z,1.95
2023-07-21T06:25:37.777Z,2.20
2023-07-21T06:26:33.794Z,2.25
2023-07-21T06:27:28.765Z,2.00
2023-07-21T06:28:19.787Z,1.98
2023-07-21T06:29:10.724Z,2.30
2023-07-21T06:30:01.529Z,2.40
2023-07-21T06:30:59.438Z,1.90
2023-07-21T06:32:12.180Z,2.20
2023-07-21T06:33:32.568Z,1.75
2023-07-21T06:34:43.657Z,2.40
2023-07-21T06:35:51.476Z,2.40
2023-07-21T06:37:11.863Z,2.30
2023-07-21T06:38:25.774Z,2.38
2023-07-21T06:39:37.130Z,2.42
2023-07-21T06:40:32.096Z,2.30
2023-07-21T06:41:54.665Z,2.67
2023-07-21T06:43:04.083Z,2.00
2023-07-21T06:43:54.768Z,2.25
2023-07-21T06:44:57.931Z,2.10
2023-07-21T06:45:59.656Z,2.38
2023-07-21T06:48:25.948Z,2.22
2023-07-21T06:49:28.948Z,1.85
2023-07-21T06:50:25.325Z,2.45
2023-07-21T06:51:17.962Z,2.28
2023-07-21T06:52:10.128Z,2.30
2023-07-21T06:53:00.720Z,2.10
2023-07-21T06:53:52.351Z,2.15
2023-07-21T06:54:42.950Z,2.22
2023-07-21T06:55:34.608Z,1.80
2023-07-21T06:56:25.161Z,2.38
2023-07-21T06:57:16.007Z,2.47
2023-07-21T06:58:06.965Z,1.83
2023-07-21T06:58:57.787Z,2.08
2023-07-21T06:59:48.670Z,3.30
2023-07-21T07:00:41.741Z,2.05
2023-07-21T07:01:32.923Z,1.98
2023-07-21T07:02:23.687Z,2.30
2023-07-21T07:03:14.671Z,2.30
2023-07-21T07:04:06.768Z,2.30
2023-07-21T07:04:57.669Z,1.92
2023-07-21T07:05:50.157Z,2.10
2023-07-21T07:06:42.181Z,1.83
2023-07-21T07:08:23.530Z,1.85
2023-07-21T07:09:15.639Z,2.03
2023-07-21T07:10:07.398Z,2.20
2023-07-21T07:10:58.177Z,2.75
2023-07-21T07:11:49.485Z,2.70
2023-07-21T07:12:40.295Z,2.72
2023-07-21T07:13:31.220Z,2.58
2023-07-21T07:14:22.221Z,2.45
2023-07-21T07:15:12.878Z,2.33
2023-07-21T07:16:04.404Z,2.35
2023-07-21T07:16:55.170Z,2.80
2023-07-21T07:17:46.430Z,2.70
2023-07-21T07:18:37.243Z,2.78
2023-07-21T07:19:28.649Z,2.30
2023-07-21T07:20:19.407Z,2.28
2023-07-21T07:21:10.274Z,2.60
2023-07-21T07:22:02.659Z,2.60
2023-07-21T07:22:53.870Z,2.70
2023-07-21T07:23:44.550Z,2.75
2023-07-21T07:24:36.131Z,2.53
2023-07-21T07:25:28.107Z,2.40
2023-07-21T07:26:19.263Z,2.38
2023-07-21T07:27:10.882Z,2.60
2023-07-21T07:28:01.783Z,1.92
2023-07-21T07:28:52.457Z,2.47
2023-07-21T07:29:43.259Z,2.30
2023-07-21T07:30:37.051Z,2.30
2023-07-21T07:31:28.210Z,2.40
2023-07-21T07:32:19.228Z,1.73
2023-07-21T07:33:10.088Z,2.40
2023-07-21T07:34:00.903Z,2.08
2023-07-21T07:34:56.526Z,2.10
2023-07-21T07:35:53.641Z,1.77
2023-07-21T07:36:44.745Z,2.00
2023-07-21T07:37:35.750Z,2.35
2023-07-21T07:38:28.440Z,1.65
2023-07-21T07:39:19.785Z,2.38
2023-07-21T07:40:11.497Z,2.00
2023-07-21T07:41:04.871Z,2.00
2023-07-21T07:41:55.898Z,1.90
2023-07-21T07:42:47.683Z,2.33
2023-07-21T07:43:38.342Z,1.90
2023-07-21T07:44:29.184Z,2.17
2023-07-21T07:45:19.974Z,2.60
2023-07-21T07:46:10.908Z,2.15
2023-07-21T07:47:01.944Z,2.17
2023-07-21T07:47:54.175Z,2.33
2023-07-21T07:48:49.253Z,2.22
2023-07-21T07:49:40.339Z,2.45
2023-07-21T07:50:31.175Z,2.55
2023-07-21T07:51:21.931Z,1.92
2023-07-21T07:52:13.016Z,2.38
2023-07-21T07:53:03.886Z,2.30
2023-07-21T07:53:54.685Z,2.33
2023-07-21T07:54:48.352Z,2.30
2023-07-21T07:55:39.514Z,2.30
2023-07-21T07:56:30.555Z,2.78
2023-07-21T07:57:21.385Z,2.20
2023-07-21T07:58:12.617Z,2.30
2023-07-21T07:59:03.682Z,2.80
2023-07-21T07:59:55.172Z,2.65
2023-07-21T08:00:46.821Z,2.28
2023-07-21T08:02:28.542Z,2.40
2023-07-21T08:03:19.435Z,2.10
2023-07-21T08:04:11.322Z,2.80
2023-07-21T08:05:53.245Z,2.45
2023-07-21T08:06:44.361Z,2.20
2023-07-21T08:07:35.399Z,2.53
2023-07-21T08:08:27.335Z,2.72
2023-07-21T08:09:18.208Z,2.63
2023-07-21T08:10:09.836Z,2.88
2023-07-21T08:11:02.927Z,2.78
2023-07-21T08:11:53.649Z,2.63
2023-07-21T08:12:44.577Z,2.60
2023-07-21T08:13:36.187Z,3.00
2023-07-21T08:14:27.540Z,2.38
2023-07-21T08:15:18.452Z,2.92
2023-07-21T08:16:11.166Z,3.00
2023-07-21T08:17:03.763Z,2.45
2023-07-21T08:17:54.979Z,2.53
2023-07-21T08:18:46.103Z,2.60
2023-07-21T08:19:36.935Z,2.05
2023-07-21T08:20:27.812Z,2.67
2023-07-21T08:21:20.035Z,2.60
2023-07-21T08:22:11.449Z,2.85
2023-07-21T08:23:04.835Z,2.47
2023-07-21T08:25:42.603Z,2.35
2023-07-21T08:27:27.012Z,2.42
2023-07-21T08:28:17.586Z,2.65
2023-07-21T08:29:10.284Z,2.42
2023-07-21T08:30:01.506Z,2.25
2023-07-21T08:30:58.746Z,2.05
2023-07-21T08:31:50.684Z,2.70
2023-07-21T08:32:42.898Z,2.55
2023-07-21T08:33:33.997Z,3.05
2023-07-21T08:34:25.133Z,2.53
2023-07-21T08:35:16.178Z,2.95
2023-07-21T08:36:07.156Z,3.03
2023-07-21T08:36:57.792Z,2.67
2023-07-21T08:37:48.756Z,2.95
2023-07-21T08:38:39.726Z,3.08
2023-07-21T08:39:31.480Z,2.67
2023-07-21T08:40:24.057Z,2.88
2023-07-21T08:41:19.004Z,3.08
2023-07-21T08:42:13.327Z,2.90
2023-07-21T08:43:04.613Z,2.92
2023-07-21T08:43:59.806Z,3.30
2023-07-21T08:44:51.803Z,2.50
2023-07-21T08:45:45.145Z,2.95
2023-07-21T08:46:36.005Z,2.88
2023-07-21T08:47:27.000Z,3.00
2023-07-21T08:48:18.989Z,2.72
2023-07-21T08:49:11.431Z,2.67
2023-07-21T08:50:05.209Z,2.75
2023-07-21T08:50:57.131Z,2.85
2023-07-21T08:52:38.844Z,2.20
2023-07-21T08:53:29.669Z,2.47
2023-07-21T08:54:20.553Z,2.50
2023-07-21T08:55:11.212Z,3.13
2023-07-21T08:56:04.256Z,2.97
2023-07-21T08:56:54.682Z,3.33
2023-07-21T08:57:45.397Z,2.92
2023-07-21T08:58:37.033Z,3.25
2023-07-21T08:59:27.754Z,3.22
2023-07-21T09:00:22.269Z,2.30
2023-07-21T09:01:13.070Z,3.03
2023-07-21T09:02:04.194Z,2.90
2023-07-21T09:03:02.737Z,2.33
2023-07-21T09:03:53.640Z,3.60
2023-07-21T09:04:45.545Z,2.95
2023-07-21T09:05:36.510Z,2.30
2023-07-21T09:06:27.428Z,3.10
2023-07-21T09:07:18.588Z,2.53
2023-07-21T09:08:19.933Z,3.40
2023-07-21T09:09:18.535Z,3.15
2023-07-21T09:10:10.411Z,3.05
2023-07-21T09:11:02.553Z,2.90
2023-07-21T09:12:12.782Z,2.78
2023-07-21T09:13:04.398Z,2.28
2023-07-21T09:13:58.175Z,2.90
2023-07-21T09:14:49.036Z,2.92
2023-07-21T09:15:39.867Z,2.70
2023-07-21T09:16:34.311Z,2.65
2023-07-21T09:17:25.469Z,2.45
2023-07-21T09:18:16.199Z,2.28
2023-07-21T09:19:07.988Z,2.63
2023-07-21T09:19:58.766Z,2.92
2023-07-21T09:20:50.761Z,3.30
2023-07-21T09:21:41.294Z,3.22
2023-07-21T09:22:32.028Z,3.22
2023-07-21T09:23:24.146Z,2.90
2023-07-21T09:24:14.946Z,2.60
2023-07-21T09:25:06.066Z,2.83
2023-07-21T09:25:59.174Z,3.53
2023-07-21T09:26:50.188Z,3.63
2023-07-21T09:27:53.008Z,2.80
2023-07-21T09:28:44.982Z,2.95
2023-07-21T09:29:35.670Z,2.60
2023-07-21T09:30:26.753Z,2.78
2023-07-21T09:31:17.715Z,2.35
2023-07-21T09:32:16.618Z,2.60
2023-07-21T09:33:07.487Z,2.63
2023-07-21T09:34:06.885Z,2.50
2023-07-21T09:35:02.569Z,2.47
2023-07-21T09:36:17.118Z,2.80
2023-07-21T09:37:08.964Z,2.63
2023-07-21T09:38:00.489Z,3.42
2023-07-21T09:38:51.906Z,3.50
2023-07-21T09:39:44.750Z,3.03
2023-07-21T09:40:43.179Z,2.80
2023-07-21T09:41:35.877Z,3.17
2023-07-21T09:42:28.317Z,2.92
2023-07-21T09:43:19.369Z,2.90
2023-07-21T09:44:11.589Z,4.00
2023-07-21T09:45:02.526Z,3.05
2023-07-21T09:45:55.809Z,3.00
2023-07-21T09:46:47.235Z,2.80
2023-07-21T09:47:45.070Z,2.92
2023-07-21T09:48:38.073Z,2.45
2023-07-21T09:49:28.989Z,3.22
2023-07-21T09:50:19.775Z,2.80
2023-07-21T09:51:11.686Z,2.38
2023-07-21T09:52:03.387Z,2.83
2023-07-21T09:52:56.290Z,3.22
2023-07-21T09:53:50.288Z,3.10
2023-07-21T09:54:44.446Z,2.80
2023-07-21T09:55:42.010Z,2.80
2023-07-21T09:56:38.099Z,2.80
2023-07-21T09:57:33.849Z,3.25
2023-07-21T09:58:27.440Z,2.55
2023-07-21T09:59:19.477Z,2.97
2023-07-21T10:00:15.781Z,3.03
2023-07-21T10:01:07.219Z,2.67
2023-07-21T10:01:58.435Z,2.42
2023-07-21T10:02:54.123Z,3.20
2023-07-21T10:03:46.209Z,2.90
2023-07-21T10:04:37.380Z,3.03
2023-07-21T10:05:27.895Z,2.83
2023-07-21T10:06:19.484Z,2.58
2023-07-21T10:07:13.370Z,2.63
2023-07-21T10:08:05.006Z,3.08
2023-07-21T10:08:57.690Z,3.20
2023-07-21T10:09:50.461Z,2.97
2023-07-21T10:10:41.063Z,2.60
2023-07-21T10:11:32.203Z,3.10
2023-07-21T10:12:23.221Z,2.83
2023-07-21T10:13:14.155Z,3.28
2023-07-21T10:14:04.893Z,3.53
2023-07-21T10:14:55.744Z,2.70
2023-07-21T10:15:48.421Z,3.25
2023-07-21T10:16:39.539Z,2.60
2023-07-21T10:17:43.968Z,3.30
2023-07-21T10:18:35.120Z,3.30
2023-07-21T10:19:30.120Z,2.75
2023-07-21T10:20:20.842Z,2.95
2023-07-21T10:21:12.195Z,2.72
2023-07-21T10:22:03.024Z,3.10
2023-07-21T10:22:57.499Z,3.25
2023-07-21T10:23:52.597Z,2.92
2023-07-21T10:24:46.414Z,3.10
2023-07-21T10:25:56.130Z,2.83
2023-07-21T10:26:47.490Z,2.60
2023-07-21T10:27:38.017Z,2.95
2023-07-21T10:28:44.868Z,2.67
2023-07-21T10:29:38.396Z,2.80
2023-07-21T10:30:29.333Z,3.15
2023-07-21T10:31:23.966Z,2.90
2023-07-21T10:32:15.121Z,3.00
2023-07-21T10:33:21.589Z,2.83
2023-07-21T10:34:18.066Z,2.72
2023-07-21T10:35:31.887Z,3.15
2023-07-21T10:36:22.640Z,2.53
2023-07-21T10:37:14.114Z,3.17
2023-07-21T10:38:14.080Z,2.55
2023-07-21T10:39:12.062Z,2.85
2023-07-21T10:40:59.239Z,2.33
2023-07-21T10:41:55.136Z,3.03
2023-07-21T10:42:46.141Z,2.70
2023-07-21T10:43:37.038Z,2.80
2023-07-21T10:44:38.289Z,2.40
2023-07-21T10:45:29.553Z,2.35
2023-07-21T10:46:20.483Z,2.55
2023-07-21T10:47:17.041Z,2.55
2023-07-21T10:48:16.125Z,2.78
2023-07-21T10:49:10.449Z,2.60
2023-07-21T10:50:01.162Z,3.00
2023-07-21T10:50:55.640Z,2.97
2023-07-21T10:51:48.430Z,2.70
2023-07-21T10:52:39.487Z,3.50
2023-07-21T10:53:30.353Z,2.60
2023-07-21T10:54:21.907Z,3.00
2023-07-21T10:55:19.753Z,2.35
2023-07-21T10:56:10.705Z,3.10
2023-07-21T10:57:02.083Z,2.55
2023-07-21T10:57:54.417Z,2.53
2023-07-21T10:58:45.042Z,3.20
2023-07-21T10:59:37.108Z,3.53
2023-07-21T11:00:27.803Z,2.45
2023-07-21T11:01:21.886Z,3.42
2023-07-21T11:02:12.745Z,2.70
2023-07-21T11:03:05.730Z,2.55
2023-07-21T11:03:56.573Z,2.80
2023-07-21T11:04:47.229Z,2.78
2023-07-21T11:05:38.156Z,2.45
2023-07-21T11:06:29.282Z,2.83
2023-07-21T11:07:19.903Z,3.00
2023-07-21T11:08:29.225Z,2.80
2023-07-21T11:09:22.629Z,2.47
2023-07-21T11:10:13.597Z,2.53
2023-07-21T11:11:04.497Z,3.10
2023-07-21T11:11:58.033Z,2.83
2023-07-21T11:12:52.008Z,2.30
2023-07-21T11:13:43.223Z,2.88
2023-07-21T11:14:34.131Z,2.65
2023-07-21T11:15:24.968Z,2.63
2023-07-21T11:16:15.829Z,2.53
2023-07-21T11:17:07.656Z,3.03
2023-07-21T11:18:05.775Z,2.42
2023-07-21T11:18:56.458Z,2.70
2023-07-21T11:19:47.802Z,2.88
2023-07-21T11:20:38.720Z,2.80
2023-07-21T11:21:29.616Z,3.33
2023-07-21T11:22:24.351Z,3.08
2023-07-21T11:23:15.432Z,2.83
2023-07-21T11:24:11.717Z,2.95
2023-07-21T11:25:11.144Z,2.95
2023-07-21T11:26:12.046Z,3.05
2023-07-21T11:27:10.283Z,2.88
2023-07-21T11:28:07.171Z,2.45
2023-07-21T11:29:00.743Z,3.35
2023-07-21T11:29:53.745Z,3.00
2023-07-21T11:30:49.414Z,3.53
2023-07-21T11:31:40.345Z,3.45
2023-07-21T11:32:31.357Z,3.65
2023-07-21T11:33:23.101Z,4.22
2023-07-21T11:34:20.979Z,3.10
2023-07-21T11:35:11.837Z,3.30
2023-07-21T11:36:15.478Z,3.58
2023-07-21T11:37:07.019Z,3.30
2023-07-21T11:37:59.676Z,3.88
2023-07-21T11:39:05.929Z,2.97
2023-07-21T11:39:57.831Z,3.00
2023-07-21T11:40:49.381Z,3.38
2023-07-21T11:41:40.881Z,2.78
2023-07-21T11:42:50.888Z,2.97
2023-07-21T11:43:50.937Z,3.22
2023-07-21T11:44:41.759Z,3.10
2023-07-21T11:45:36.360Z,3.20
2023-07-21T11:46:27.168Z,3.38
2023-07-21T11:47:18.933Z,3.40
2023-07-21T11:48:19.088Z,2.92
2023-07-21T11:49:15.537Z,3.10
2023-07-21T11:50:07.108Z,3.03
2023-07-21T11:50:58.052Z,3.45
2023-07-21T11:51:52.499Z,3.08
2023-07-21T11:52:44.166Z,2.92
2023-07-21T11:53:46.480Z,3.45
2023-07-21T11:54:38.341Z,3.17
2023-07-21T11:55:29.831Z,2.65
2023-07-21T11:56:20.649Z,3.20
2023-07-21T11:57:12.909Z,3.17
2023-07-21T11:58:03.960Z,2.97
2023-07-21T11:58:54.778Z,3.30
2023-07-21T11:59:45.720Z,3.58
2023-07-21T12:00:36.343Z,2.90
2023-07-21T12:01:27.404Z,3.67
2023-07-21T12:02:19.235Z,3.45
2023-07-21T12:04:02.004Z,3.03
2023-07-21T12:04:53.912Z,3.13
2023-07-21T12:05:45.010Z,3.35
2023-07-21T12:06:36.496Z,3.33
2023-07-21T12:07:28.121Z,3.28
2023-07-21T12:08:18.944Z,3.58
2023-07-21T12:09:10.598Z,3.20
2023-07-21T12:10:02.090Z,3.30
2023-07-21T12:10:52.713Z,3.22
2023-07-21T12:11:44.595Z,2.80
2023-07-21T12:12:37.619Z,2.83
2023-07-21T12:13:30.743Z,3.20
2023-07-21T12:14:21.436Z,3.20